This is the latest recevied weather packets stored in our database for station/object W4KUS-10. If no packets are shown the sender has not sent any weather packets the latest 10 day(s).
| Time | Temp. | Humidity | Pressure | Rain* | Wind** | Luminosity | Snow |
|---|---|---|---|---|---|---|---|
| 1777899341 | 19.44° C | 71% | 1017.1 hPa | 0 mm | - | - | - |
| 1777899041 | 18.33° C | 73% | 1017 hPa | 0 mm | - | - | - |
| 1777898741 | 17.78° C | 76% | 1017 hPa | 0 mm | - | - | - |
| 1777898441 | 16.67° C | 79% | 1017 hPa | 0 mm | - | - | - |
| 1777898141 | 16.11° C | 83% | 1017 hPa | 0 mm | - | - | - |
| 1777897841 | 15.56° C | 89% | 1017 hPa | 0 mm | - | - | - |
| 1777897541 | 15° C | 92% | 1017 hPa | 0 mm | - | - | - |
| 1777897241 | 14.44° C | 94% | 1017 hPa | 0 mm | - | - | - |
| 1777896941 | 13.89° C | 95% | 1017 hPa | 0 mm | - | - | - |
| 1777896641 | 13.33° C | 95% | 1017 hPa | 0 mm | - | - | - |
| 1777896341 | 12.78° C | 95% | 1017.1 hPa | 0 mm | - | - | - |
| 1777896041 | 12.22° C | 96% | 1017.1 hPa | 0 mm | - | - | - |
| 1777895741 | 12.22° C | 96% | 1017.1 hPa | 0 mm | - | - | - |
| 1777895440 | 11.67° C | 96% | 1017.2 hPa | 0 mm | - | - | - |
| 1777895141 | 11.11° C | 96% | 1017.2 hPa | 0 mm | - | - | - |
| 1777894841 | 11.11° C | 96% | 1017.1 hPa | 0 mm | - | - | - |
| 1777894541 | 10.56° C | 96% | 1017.2 hPa | 0 mm | - | - | - |
| 1777894241 | 10.56° C | 96% | 1017.2 hPa | 0 mm | - | - | - |
| 1777893941 | 10° C | 96% | 1017.3 hPa | 0 mm | - | - | - |
| 1777893641 | 10° C | 95% | 1017.3 hPa | 0 mm | - | - | - |
| 1777893340 | 10° C | 95% | 1017.3 hPa | 0 mm | - | - | - |
| 1777893041 | 10° C | 95% | 1017.2 hPa | 0 mm | - | - | - |
| 1777892741 | 9.44° C | 95% | 1017.2 hPa | 0 mm | - | - | - |
| 1777892441 | 9.44° C | 95% | 1017.1 hPa | 0 mm | - | - | - |
| 1777892141 | 9.44° C | 95% | 1017.1 hPa | 0 mm | - | - | - |
* Rain latest hour (hover to see other rain measurements)
** Current wind speed in m/s (hover to see current wind gust speed)